Time;durP1;ratioP1;P1;durP2;ratioP2;P2;SDS_P1;SDS_P2;PMS_P1;PMS_P2;Temp;Humidity;BMP_temperature;BMP_pressure;BME280_temperature;BME280_humidity;BME280_pressure;Samples;Min_cycle;Max_cycle;Signal;HPM_P1;HPM_P2
2022/02/24 00:00:14;;;;;;;8.50;4.40;;;3.90;99.90;;;;;;5058906;28;20214;-85
2022/02/24 00:02:43;;;;;;;9.32;5.80;;;3.80;99.90;;;;;;5061383;28;20187;-84
2022/02/24 00:05:11;;;;;;;9.00;5.60;;;3.80;99.90;;;;;;5061139;28;20179;-83
2022/02/24 00:07:38;;;;;;;7.60;5.10;;;3.90;99.90;;;;;;5060985;28;20200;-84
2022/02/24 00:10:08;;;;;;;8.32;5.68;;;3.80;99.90;;;;;;5061112;28;20206;-84
2022/02/24 00:12:34;;;;;;;8.25;5.15;;;3.80;99.90;;;;;;5060144;28;20255;-84
2022/02/24 00:15:04;;;;;;;9.85;5.95;;;3.70;99.90;;;;;;5052892;28;20257;-86
2022/02/24 00:17:30;;;;;;;10.70;5.90;;;3.60;99.90;;;;;;5043965;28;20223;-85
2022/02/24 00:19:57;;;;;;;8.90;5.00;;;3.70;99.90;;;;;;5045071;28;20219;-86
2022/02/24 00:22:24;;;;;;;9.48;5.85;;;3.60;99.90;;;;;;5046145;28;20211;-86
2022/02/24 00:24:50;;;;;;;8.52;5.10;;;3.60;99.90;;;;;;5044316;28;20208;-86
2022/02/24 00:27:17;;;;;;;9.55;5.00;;;3.50;99.90;;;;;;5044342;28;20204;-85
2022/02/24 00:29:44;;;;;;;10.95;5.82;;;3.60;99.90;;;;;;5048693;28;20240;-86
2022/02/24 00:32:12;;;;;;;7.72;5.47;;;3.60;99.90;;;;;;5047108;28;20273;-85
2022/02/24 00:34:39;;;;;;;5.20;4.28;;;3.60;99.90;;;;;;5045374;28;20215;-85
2022/02/24 00:37:06;;;;;;;10.93;5.38;;;3.60;99.90;;;;;;5046652;28;20219;-85
2022/02/24 00:39:32;;;;;;;11.20;5.85;;;3.60;99.90;;;;;;5050600;28;20249;-85
2022/02/24 00:41:59;;;;;;;11.48;5.47;;;3.50;99.90;;;;;;5052561;28;20215;-86
2022/02/24 00:44:26;;;;;;;9.40;4.88;;;3.40;99.90;;;;;;5053874;28;20204;-85
2022/02/24 00:46:53;;;;;;;8.18;4.63;;;3.30;99.90;;;;;;5052304;28;20203;-85
2022/02/24 00:49:22;;;;;;;11.00;5.70;;;3.30;99.90;;;;;;5052938;28;20227;-85
2022/02/24 00:51:49;;;;;;;11.15;7.50;;;3.30;99.90;;;;;;5054751;28;20238;-85
2022/02/24 00:54:16;;;;;;;12.32;6.57;;;3.30;99.90;;;;;;5054198;28;20207;-85
2022/02/24 00:56:42;;;;;;;8.90;7.25;;;3.30;99.90;;;;;;5056462;28;20208;-85
2022/02/24 00:59:09;;;;;;;12.50;5.45;;;3.20;99.90;;;;;;5052062;28;20254;-85
2022/02/24 01:01:36;;;;;;;12.27;5.65;;;3.20;99.90;;;;;;5049874;28;20223;-85
2022/02/24 01:04:03;;;;;;;8.70;5.40;;;3.30;99.90;;;;;;5046520;28;20203;-86
2022/02/24 01:06:31;;;;;;;10.65;5.25;;;3.20;99.90;;;;;;5046522;28;20204;-85
2022/02/24 01:08:57;;;;;;;14.60;5.88;;;3.40;99.90;;;;;;5048130;28;20246;-85
2022/02/24 01:11:24;;;;;;;8.00;5.22;;;3.20;99.90;;;;;;5053190;28;20212;-85
2022/02/24 01:13:51;;;;;;;7.20;6.00;;;3.20;99.90;;;;;;5057973;28;20211;-85
2022/02/24 01:16:17;;;;;;;9.65;4.80;;;3.20;99.90;;;;;;5056985;28;20203;-85
2022/02/24 01:18:44;;;;;;;15.55;6.05;;;3.20;99.90;;;;;;5055603;28;20223;-85
2022/02/24 01:21:11;;;;;;;12.77;5.57;;;3.20;99.90;;;;;;5050572;28;20294;-85
2022/02/24 01:23:39;;;;;;;9.80;5.78;;;3.20;99.90;;;;;;5052135;28;20204;-85
2022/02/24 01:26:05;;;;;;;11.15;6.20;;;3.10;99.90;;;;;;5051472;28;20203;-85
2022/02/24 01:28:32;;;;;;;7.18;4.40;;;3.10;99.90;;;;;;5050983;28;20216;-85
2022/02/24 01:30:59;;;;;;;10.02;5.18;;;3.10;99.90;;;;;;5051516;28;20219;-85
2022/02/24 01:33:25;;;;;;;9.73;5.00;;;3.00;99.90;;;;;;5051223;28;20234;-85
2022/02/24 01:35:52;;;;;;;12.93;4.80;;;3.00;99.90;;;;;;5050215;28;20204;-85
2022/02/24 01:38:19;;;;;;;7.40;4.50;;;3.00;99.90;;;;;;5048926;28;20602;-85
2022/02/24 01:40:46;;;;;;;15.65;5.18;;;2.90;99.90;;;;;;5048922;28;20230;-85
2022/02/24 01:43:13;;;;;;;8.15;5.35;;;2.90;99.90;;;;;;5052911;28;20204;-85
2022/02/24 01:45:40;;;;;;;10.18;4.93;;;2.90;99.90;;;;;;5058804;28;20200;-85
2022/02/24 01:48:07;;;;;;;8.25;4.70;;;2.90;99.90;;;;;;5055520;28;20224;-85
2022/02/24 01:50:33;;;;;;;11.57;5.28;;;2.90;99.90;;;;;;5052464;28;20199;-85
2022/02/24 01:53:00;;;;;;;7.70;4.32;;;2.80;99.90;;;;;;5058519;28;20206;-85
2022/02/24 01:55:27;;;;;;;10.23;4.82;;;2.80;99.90;;;;;;5058149;28;20196;-84
2022/02/24 01:57:55;;;;;;;8.73;4.55;;;2.80;99.90;;;;;;5056533;28;20235;-85
2022/02/24 02:00:23;;;;;;;8.40;4.30;;;2.80;99.90;;;;;;5056368;28;20204;-85
2022/02/24 02:02:50;;;;;;;9.38;5.20;;;2.80;99.90;;;;;;5050849;28;20200;-85
2022/02/24 02:05:17;;;;;;;5.40;4.45;;;2.90;99.90;;;;;;5041710;28;20207;-85
2022/02/24 02:07:43;;;;;;;10.73;5.20;;;2.70;99.90;;;;;;5039326;28;20570;-86
2022/02/24 02:10:10;;;;;;;7.32;6.05;;;2.90;99.90;;;;;;5037486;28;20207;-84
2022/02/24 02:12:51;;;;;;;10.23;4.15;;;2.80;99.90;;;;;;5038872;28;20211;-85
2022/02/24 02:15:19;;;;;;;10.07;4.75;;;2.90;99.90;;;;;;5043698;28;20207;-83
2022/02/24 02:17:46;;;;;;;8.98;4.57;;;2.60;99.90;;;;;;5052481;28;20250;-84
2022/02/24 02:20:15;;;;;;;7.55;5.00;;;2.90;99.90;;;;;;5053190;28;20617;-85
2022/02/24 02:22:44;;;;;;;9.52;4.25;;;2.80;99.90;;;;;;5048754;28;20203;-85
2022/02/24 02:25:11;;;;;;;7.32;4.60;;;2.80;99.90;;;;;;5039460;28;20671;-85
2022/02/24 02:27:39;;;;;;;6.05;4.60;;;3.10;99.90;;;;;;5038340;28;20199;-86
2022/02/24 02:30:08;;;;;;;6.18;4.43;;;2.80;99.90;;;;;;5037297;28;20204;-84
2022/02/24 02:32:34;;;;;;;7.63;4.25;;;2.70;99.90;;;;;;5039833;28;20247;-84
2022/02/24 02:35:01;;;;;;;9.48;5.25;;;2.70;99.90;;;;;;5048257;28;20265;-84
2022/02/24 02:37:28;;;;;;;9.18;5.10;;;2.70;99.90;;;;;;5046659;28;20227;-84
2022/02/24 02:39:55;;;;;;;8.70;4.65;;;2.70;99.90;;;;;;5045636;28;20230;-85
2022/02/24 02:42:22;;;;;;;7.85;4.30;;;2.70;99.90;;;;;;5042841;28;20204;-85
2022/02/24 02:44:49;;;;;;;6.50;4.20;;;2.70;99.90;;;;;;5039382;28;20280;-85
2022/02/24 02:47:16;;;;;;;7.32;4.70;;;2.70;99.90;;;;;;5038492;28;20211;-85
2022/02/24 02:49:42;;;;;;;10.05;4.55;;;2.80;99.90;;;;;;5037194;28;20224;-85
2022/02/24 02:52:09;;;;;;;8.50;4.40;;;2.80;99.90;;;;;;5038593;28;20211;-85
2022/02/24 02:54:36;;;;;;;13.93;4.50;;;2.90;99.90;;;;;;5051328;28;20266;-85
2022/02/24 02:57:04;;;;;;;11.77;4.07;;;2.80;99.90;;;;;;5056905;28;20191;-85
2022/02/24 02:59:31;;;;;;;9.00;4.57;;;2.70;99.90;;;;;;5058001;28;20235;-85
2022/02/24 03:01:58;;;;;;;5.68;3.25;;;2.80;99.90;;;;;;5058013;28;20227;-84
2022/02/24 03:04:24;;;;;;;7.00;4.45;;;2.80;99.90;;;;;;5050271;28;20195;-85
2022/02/24 03:06:51;;;;;;;6.47;4.57;;;2.80;99.90;;;;;;5038593;28;20290;-85
2022/02/24 03:09:18;;;;;;;6.45;4.25;;;2.90;99.90;;;;;;5039547;28;20224;-85
2022/02/24 03:11:45;;;;;;;6.32;4.53;;;2.80;99.90;;;;;;5039860;28;20531;-85
2022/02/24 03:14:13;;;;;;;8.68;3.70;;;2.60;99.90;;;;;;5049340;28;20192;-84
2022/02/24 03:16:39;;;;;;;6.10;4.03;;;2.80;99.90;;;;;;5057771;28;20192;-84
2022/02/24 03:23:41;;;;;;;;;;;;;;;;;;;;;
2022/02/24 03:26:23;;;;;;;11.02;4.50;;;1.50;99.90;;;;;;4940071;29;20313;-89
2022/02/24 03:29:23;;;;;;;11.07;4.28;;;2.70;99.90;;;;;;4975049;23;20266;-89
2022/02/24 03:32:10;;;;;;;7.22;3.95;;;2.70;99.90;;;;;;5005321;28;20297;-89
2022/02/24 04:06:38;;;;;;;6.70;4.45;;;;;;;;;;5042158;28;20208;-89
2022/02/24 04:16:01;;;;;;;3.85;3.50;;;2.90;99.90;;;;;;5001450;23;20243;-79
2022/02/24 04:18:28;;;;;;;6.47;4.20;;;2.60;99.90;;;;;;5007165;28;20229;-82
2022/02/24 04:20:56;;;;;;;8.85;4.10;;;2.70;99.90;;;;;;5013708;28;20668;-79
2022/02/24 04:23:22;;;;;;;4.60;4.20;;;2.70;99.90;;;;;;5012179;28;20236;-80
2022/02/24 04:25:49;;;;;;;6.57;4.78;;;2.70;99.90;;;;;;5011434;28;20225;-80
2022/02/24 04:28:15;;;;;;;5.85;4.35;;;2.60;99.90;;;;;;5015429;28;20201;-82
2022/02/24 04:30:42;;;;;;;9.07;4.10;;;2.60;99.90;;;;;;5016731;28;20232;-82
2022/02/24 04:33:09;;;;;;;9.45;4.35;;;2.60;99.90;;;;;;5014483;28;20212;-81
2022/02/24 04:35:36;;;;;;;10.57;5.13;;;2.60;99.90;;;;;;5011969;28;20233;-81
2022/02/24 04:38:04;;;;;;;5.25;3.65;;;2.60;99.90;;;;;;5012944;28;20750;-82
2022/02/24 04:40:31;;;;;;;6.85;3.75;;;2.60;99.90;;;;;;5012613;28;20209;-82
2022/02/24 04:42:57;;;;;;;7.65;4.07;;;2.60;99.90;;;;;;5011225;28;20268;-81
2022/02/24 04:45:24;;;;;;;7.05;3.95;;;2.60;99.90;;;;;;5012999;28;20225;-80
2022/02/24 04:47:50;;;;;;;7.30;3.90;;;2.60;99.90;;;;;;5013767;28;20216;-80
2022/02/24 04:50:17;;;;;;;5.65;3.30;;;2.50;99.90;;;;;;5013828;28;20212;-80
2022/02/24 04:52:43;;;;;;;8.75;5.47;;;2.60;99.90;;;;;;5015931;28;20201;-80
2022/02/24 04:55:12;;;;;;;4.75;3.83;;;2.80;99.90;;;;;;5015171;28;20229;-80
2022/02/24 04:57:38;;;;;;;4.82;3.15;;;2.70;99.90;;;;;;5013228;28;20436;-81
2022/02/24 05:00:07;;;;;;;8.95;3.58;;;2.80;99.90;;;;;;5010218;28;20229;-79
2022/02/24 05:02:34;;;;;;;4.13;2.75;;;3.10;99.90;;;;;;5011687;28;20205;-79
2022/02/24 05:05:00;;;;;;;4.05;3.65;;;2.70;99.90;;;;;;5006266;28;20228;-81
2022/02/24 05:07:27;;;;;;;3.92;3.15;;;2.70;99.90;;;;;;5010565;28;20201;-81
2022/02/24 05:09:53;;;;;;;5.72;3.75;;;2.80;99.90;;;;;;5010659;28;20656;-82
2022/02/24 05:12:21;;;;;;;10.45;4.22;;;2.80;99.90;;;;;;5011147;28;20201;-80
2022/02/24 05:14:48;;;;;;;7.00;3.58;;;2.60;99.90;;;;;;5006707;28;20236;-80
2022/02/24 05:17:15;;;;;;;7.30;3.97;;;2.80;99.90;;;;;;5005191;28;20190;-80
2022/02/24 05:19:41;;;;;;;4.55;3.70;;;2.80;99.90;;;;;;5006169;28;20233;-79
2022/02/24 05:22:08;;;;;;;3.47;3.17;;;2.80;99.90;;;;;;5010696;28;20264;-80
2022/02/24 05:24:34;;;;;;;7.22;4.00;;;2.70;99.90;;;;;;5012368;28;20231;-80
2022/02/24 05:27:01;;;;;;;13.00;4.15;;;2.70;99.90;;;;;;5013930;28;20201;-80
2022/02/24 05:29:29;;;;;;;6.28;4.40;;;2.70;99.90;;;;;;5013782;28;20201;-82
2022/02/24 05:31:56;;;;;;;9.30;3.85;;;2.70;99.90;;;;;;5014167;28;20216;-81
2022/02/24 05:34:22;;;;;;;7.57;4.30;;;2.70;99.90;;;;;;5014043;28;20215;-80
2022/02/24 05:36:49;;;;;;;7.40;4.95;;;2.70;99.90;;;;;;5014690;28;20236;-80
2022/02/24 05:39:15;;;;;;;8.35;4.53;;;2.70;99.90;;;;;;5014252;28;20221;-80
2022/02/24 05:41:42;;;;;;;5.28;4.50;;;2.70;99.90;;;;;;5014922;28;20213;-81
2022/02/24 05:44:09;;;;;;;10.60;4.57;;;2.70;99.90;;;;;;5013587;28;20208;-80
2022/02/24 05:46:37;;;;;;;7.63;4.47;;;2.60;99.90;;;;;;5013175;28;20224;-80
2022/02/24 05:49:03;;;;;;;12.52;4.97;;;2.70;99.90;;;;;;5013263;28;20200;-80
2022/02/24 05:51:31;;;;;;;7.32;4.80;;;2.70;99.90;;;;;;5009407;28;20201;-84
2022/02/24 05:53:58;;;;;;;7.32;5.43;;;2.70;99.90;;;;;;5010757;28;20265;-79
2022/02/24 05:56:24;;;;;;;7.28;5.25;;;2.70;99.90;;;;;;5005242;28;20225;-81
2022/02/24 05:58:52;;;;;;;9.27;5.07;;;2.70;99.90;;;;;;5009518;28;20232;-80
2022/02/24 06:01:18;;;;;;;7.15;5.05;;;2.70;99.90;;;;;;5010616;28;20216;-79
2022/02/24 06:03:46;;;;;;;8.35;5.47;;;2.70;99.90;;;;;;5006736;28;20232;-81
2022/02/24 06:06:13;;;;;;;11.18;5.00;;;2.80;99.90;;;;;;5004582;28;20225;-80
2022/02/24 06:08:39;;;;;;;9.88;4.53;;;2.80;99.90;;;;;;5009481;28;20212;-80
2022/02/24 06:11:06;;;;;;;5.00;4.50;;;2.80;99.90;;;;;;5004968;28;20222;-81
2022/02/24 06:13:33;;;;;;;8.27;4.95;;;2.80;99.90;;;;;;5012850;28;20215;-81
2022/02/24 06:16:00;;;;;;;10.70;5.30;;;3.10;1.00;;;;;;5018126;28;20229;-79
2022/02/24 06:18:27;;;;;;;6.68;5.05;;;2.90;1.00;;;;;;5017950;28;20216;-80
2022/02/24 06:20:55;;;;;;;6.03;4.78;;;2.80;1.00;;;;;;5017772;28;20282;-81
2022/02/24 06:23:21;;;;;;;7.40;4.85;;;2.90;1.00;;;;;;5014144;28;20213;-81
2022/02/24 06:25:48;;;;;;;12.10;5.70;;;2.90;1.00;;;;;;5015861;28;20248;-81
2022/02/24 06:28:15;;;;;;;6.55;4.95;;;2.90;1.00;;;;;;5015113;28;20233;-80
2022/02/24 06:30:41;;;;;;;10.25;5.68;;;2.80;1.00;;;;;;5012302;28;20205;-81
2022/02/24 06:33:08;;;;;;;7.47;4.57;;;3.00;1.00;;;;;;5010423;28;20207;-82
2022/02/24 06:35:35;;;;;;;10.38;4.95;;;3.00;1.00;;;;;;5013345;28;20271;-81
2022/02/24 06:38:03;;;;;;;8.80;4.65;;;3.00;1.00;;;;;;5015548;28;20192;-83
2022/02/24 06:40:30;;;;;;;9.13;5.60;;;3.00;1.00;;;;;;5014150;28;20240;-81
2022/02/24 06:42:57;;;;;;;7.28;5.88;;;3.00;1.00;;;;;;5014229;28;20357;-81
2022/02/24 06:45:24;;;;;;;10.20;6.40;;;2.80;1.00;;;;;;5012813;28;20236;-81
2022/02/24 06:47:51;;;;;;;7.53;4.90;;;2.90;1.00;;;;;;5014013;28;20208;-80
2022/02/24 06:50:17;;;;;;;18.30;7.18;;;3.00;1.00;;;;;;5014146;28;20205;-81
2022/02/24 06:52:44;;;;;;;5.50;4.72;;;3.10;1.00;;;;;;5006975;28;20205;-82
2022/02/24 06:55:12;;;;;;;11.20;5.03;;;3.10;1.00;;;;;;5005405;28;20734;-82
2022/02/24 06:57:42;;;;;;;7.72;4.90;;;3.20;1.00;;;;;;5005667;28;20674;-81
2022/02/24 07:00:12;;;;;;;7.28;4.80;;;3.20;1.00;;;;;;5006327;28;20253;-82
2022/02/24 07:02:38;;;;;;;11.40;5.68;;;3.20;99.90;;;;;;5003557;28;20698;-81
2022/02/24 07:05:06;;;;;;;8.38;5.72;;;3.20;1.00;;;;;;5014519;28;20220;-80
2022/02/24 07:07:34;;;;;;;9.40;4.78;;;3.20;1.00;;;;;;5014498;28;20215;-80
2022/02/24 07:10:00;;;;;;;9.13;5.38;;;3.40;99.90;;;;;;5012784;28;20200;-81
2022/02/24 07:12:29;;;;;;;8.98;4.88;;;3.40;99.90;;;;;;5013546;28;20213;-80
2022/02/24 07:14:55;;;;;;;12.40;4.93;;;3.50;99.90;;;;;;4999731;28;20252;-81
2022/02/24 07:17:22;;;;;;;11.05;5.15;;;3.50;99.90;;;;;;5000470;28;20241;-83
2022/02/24 07:19:48;;;;;;;9.60;5.43;;;3.60;99.90;;;;;;5000508;28;20255;-82
2022/02/24 07:22:15;;;;;;;9.93;4.90;;;3.70;1.00;;;;;;4999482;28;20209;-81
2022/02/24 07:24:42;;;;;;;12.07;5.38;;;3.70;1.00;;;;;;5002549;28;20207;-82
2022/02/24 07:27:08;;;;;;;13.25;4.95;;;3.80;1.00;;;;;;5009390;28;20200;-81
2022/02/24 07:29:36;;;;;;;7.65;4.85;;;3.80;1.00;;;;;;5014097;28;20221;-81
2022/02/24 07:32:04;;;;;;;14.50;7.18;;;4.10;1.00;;;;;;5013112;28;20204;-81
2022/02/24 07:34:32;;;;;;;6.78;4.05;;;4.20;1.00;;;;;;5007081;28;20241;-81
2022/02/24 07:36:59;;;;;;;10.60;5.18;;;4.00;99.90;;;;;;5004723;28;20213;-82
2022/02/24 07:39:25;;;;;;;8.55;5.05;;;4.00;99.90;;;;;;5002742;28;20259;-82
2022/02/24 07:41:52;;;;;;;4.72;3.20;;;4.10;99.90;;;;;;5004272;28;20686;-82
2022/02/24 07:44:18;;;;;;;7.10;4.18;;;4.10;33.40;;;;;;5002142;28;20223;-82
2022/02/24 07:46:46;;;;;;;7.25;3.95;;;4.10;1.00;;;;;;5003837;28;20260;-82
2022/02/24 07:49:13;;;;;;;8.30;4.25;;;4.20;1.00;;;;;;5009062;28;20207;-81
2022/02/24 07:51:39;;;;;;;11.73;4.32;;;4.30;1.00;;;;;;5003147;28;20236;-83
2022/02/24 07:54:06;;;;;;;7.18;3.85;;;4.30;1.00;;;;;;5002581;28;20231;-80
2022/02/24 07:56:33;;;;;;;3.90;3.50;;;4.30;99.90;;;;;;5002708;28;20221;-83
2022/02/24 07:59:00;;;;;;;13.32;5.55;;;4.40;45.60;;;;;;5004529;28;20228;-81
2022/02/24 08:01:26;;;;;;;6.10;4.05;;;4.40;1.00;;;;;;5004840;28;20273;-82
2022/02/24 08:03:55;;;;;;;4.85;4.32;;;4.70;81.50;;;;;;5004644;28;20233;-82
2022/02/24 08:06:21;;;;;;;8.55;4.75;;;4.50;1.00;;;;;;5004560;28;20228;-81
2022/02/24 08:08:48;;;;;;;9.05;5.10;;;4.60;99.90;;;;;;5012818;28;20205;-82
2022/02/24 08:11:18;;;;;;;8.10;3.55;;;4.60;99.90;;;;;;5001570;28;20233;-81
2022/02/24 08:13:44;;;;;;;4.53;3.72;;;4.70;98.70;;;;;;5001963;28;20573;-82
2022/02/24 08:16:11;;;;;;;6.65;4.50;;;4.70;99.90;;;;;;5000821;28;20735;-82
2022/02/24 08:18:39;;;;;;;9.27;3.88;;;4.80;99.90;;;;;;5001492;28;20201;-81
2022/02/24 08:21:07;;;;;;;5.13;3.80;;;5.30;1.00;;;;;;5003938;28;20216;-82
2022/02/24 08:23:36;;;;;;;6.20;3.55;;;5.20;99.90;;;;;;5002054;28;20205;-81
2022/02/24 08:26:03;;;;;;;7.20;4.32;;;5.30;97.00;;;;;;5002400;28;20240;-84
2022/02/24 08:28:31;;;;;;;6.75;4.47;;;5.40;1.00;;;;;;5006853;28;20209;-83
2022/02/24 08:31:00;;;;;;;4.30;3.70;;;5.40;1.00;;;;;;5005836;28;20236;-83
2022/02/24 08:33:29;;;;;;;13.98;3.97;;;5.40;1.00;;;;;;5005368;28;20201;-86
2022/02/24 08:36:03;;;;;;;10.75;5.18;;;5.50;1.00;;;;;;5005906;28;20252;-87
2022/02/24 08:38:31;;;;;;;6.45;2.70;;;5.80;99.90;;;;;;5004105;28;20222;-87
2022/02/24 08:40:59;;;;;;;4.15;3.00;;;;;;;;;;5003237;28;20227;-88
2022/02/24 08:43:26;;;;;;;5.82;3.05;;;;;;;;;;5007993;28;20208;-87
2022/02/24 08:45:56;;;;;;;3.17;2.78;;;5.80;99.90;;;;;;5007855;28;20221;-86
2022/02/24 08:48:23;;;;;;;4.70;2.72;;;5.40;99.90;;;;;;5011215;28;20209;-87
2022/02/24 08:50:50;;;;;;;3.78;3.40;;;;;;;;;;5012955;28;20203;-87
2022/02/24 08:53:17;;;;;;;5.20;3.08;;;;;;;;;;5013911;28;20205;-87
2022/02/24 08:55:45;;;;;;;4.20;3.42;;;5.90;99.90;;;;;;5013605;28;20225;-87
2022/02/24 08:58:12;;;;;;;6.20;3.15;;;5.90;99.90;;;;;;5007783;28;20236;-87
2022/02/24 09:00:45;;;;;;;7.43;3.45;;;;;;;;;;5009248;28;20232;-87
2022/02/24 09:03:12;;;;;;;3.50;2.22;;;;;;;;;;5017575;28;20228;-85
2022/02/24 09:05:40;;;;;;;5.78;3.13;;;;;;;;;;5020066;28;20205;-84
2022/02/24 09:08:07;;;;;;;3.95;2.60;;;6.30;99.90;;;;;;5019834;28;20199;-84
2022/02/24 09:10:34;;;;;;;6.75;3.67;;;;;;;;;;5019125;28;20197;-86
2022/02/24 09:13:07;;;;;;;5.65;3.08;;;6.60;99.90;;;;;;5005545;28;20209;-87
2022/02/24 09:15:35;;;;;;;5.05;2.63;;;;;;;;;;5019491;28;20296;-84
2022/02/24 09:18:03;;;;;;;4.10;2.83;;;6.50;1.00;;;;;;5018760;28;20212;-87
2022/02/24 09:20:31;;;;;;;8.57;3.40;;;;;;;;;;5004511;28;20243;-87
2022/02/24 09:22:58;;;;;;;4.90;2.80;;;6.60;99.90;;;;;;5007247;28;20742;-87
2022/02/24 09:25:25;;;;;;;6.80;3.47;;;6.50;14.10;;;;;;5004162;28;20225;-87
2022/02/24 09:27:52;;;;;;;16.75;4.63;;;6.60;10.60;;;;;;5006389;28;20204;-86
2022/02/24 09:30:20;;;;;;;4.65;3.50;;;6.60;38.20;;;;;;5014374;28;20209;-87
2022/02/24 09:32:47;;;;;;;6.70;4.10;;;;;;;;;;5017127;28;20201;-87
2022/02/24 09:35:15;;;;;;;6.28;3.83;;;6.60;49.50;;;;;;5018932;28;20232;-86
2022/02/24 09:37:42;;;;;;;4.90;3.15;;;;;;;;;;5017592;28;20215;-86
2022/02/24 09:40:10;;;;;;;4.13;3.42;;;6.80;55.60;;;;;;5009058;28;20252;-86
2022/02/24 09:42:37;;;;;;;3.85;3.13;;;7.20;99.90;;;;;;5006968;28;20209;-87
2022/02/24 09:45:05;;;;;;;5.07;3.53;;;7.10;1.00;;;;;;5007776;28;20225;-86
2022/02/24 09:47:34;;;;;;;4.35;3.60;;;7.10;1.00;;;;;;5010083;28;20220;-87
2022/02/24 09:50:02;;;;;;;10.48;4.60;;;7.30;1.00;;;;;;5009465;28;20201;-86
2022/02/24 09:52:30;;;;;;;7.45;4.03;;;7.00;1.00;;;;;;5010603;28;20559;-87
2022/02/24 09:54:57;;;;;;;7.70;3.70;;;;;;;;;;5003003;28;20225;-87
2022/02/24 09:57:24;;;;;;;12.13;6.30;;;7.50;1.00;;;;;;5004676;28;20208;-88
2022/02/24 09:59:50;;;;;;;9.70;6.07;;;7.50;99.90;;;;;;5005223;28;20608;-86
2022/02/24 10:02:18;;;;;;;20.85;12.40;;;;;;;;;;5011036;28;20251;-86
2022/02/24 10:05:04;;;;;;;7.30;5.30;;;7.80;1.00;;;;;;5008687;28;20212;-86
2022/02/24 10:07:35;;;;;;;6.82;4.10;;;;;;;;;;5004332;28;20403;-87
2022/02/24 10:10:22;;;;;;;8.43;5.13;;;7.90;99.90;;;;;;5009494;28;20185;-86
2022/02/24 10:13:00;;;;;;;12.40;3.93;;;9.70;99.90;;;;;;5011058;28;20240;-87
2022/02/24 10:15:27;;;;;;;7.90;3.65;;;;;;;;;;5009325;28;20493;-87
2022/02/24 10:18:09;;;;;;;5.93;3.47;;;8.10;99.90;;;;;;5005342;28;20255;-87
2022/02/24 10:20:39;;;;;;;4.65;4.22;;;8.10;99.90;;;;;;5006711;28;20272;-87
2022/02/24 10:23:07;;;;;;;9.68;4.60;;;8.20;99.90;;;;;;5017927;28;20189;-85
2022/02/24 10:25:45;;;;;;;5.10;3.57;;;8.20;99.90;;;;;;5018857;28;20244;-86
2022/02/24 10:28:31;;;;;;;5.97;3.43;;;8.00;99.90;;;;;;5009719;28;20465;-87
2022/02/24 10:30:59;;;;;;;6.40;3.70;;;8.10;99.90;;;;;;5002972;28;20430;-87
2022/02/24 10:33:27;;;;;;;9.77;3.97;;;8.30;99.90;;;;;;5001283;28;20445;-87
2022/02/24 10:35:57;;;;;;;5.57;4.15;;;8.40;99.90;;;;;;5003094;28;20478;-87
2022/02/24 10:38:29;;;;;;;6.57;4.63;;;8.30;99.90;;;;;;5002823;28;20209;-87
2022/02/24 10:40:58;;;;;;;4.97;3.67;;;8.30;99.90;;;;;;5002137;28;20538;-87
2022/02/24 10:43:27;;;;;;;6.27;3.10;;;8.50;99.90;;;;;;5002264;28;20513;-87
2022/02/24 10:46:03;;;;;;;6.27;3.63;;;8.30;99.90;;;;;;5001374;28;20494;-87
2022/02/24 10:48:30;;;;;;;4.13;3.73;;;8.60;99.90;;;;;;5001637;28;20427;-87
2022/02/24 10:51:01;;;;;;;6.57;3.60;;;8.50;99.90;;;;;;5001194;28;20422;-87
2022/02/24 10:53:29;;;;;;;7.97;3.50;;;8.50;99.90;;;;;;5001601;28;20500;-87
2022/02/24 10:56:07;;;;;;;6.67;3.50;;;8.50;99.90;;;;;;5005647;28;20472;-86
2022/02/24 10:58:48;;;;;;;5.30;3.03;;;8.50;99.90;;;;;;5004923;28;20482;-87
2022/02/24 11:01:17;;;;;;;4.90;3.30;;;8.50;99.90;;;;;;5008934;28;20447;-87
2022/02/24 11:03:46;;;;;;;6.53;3.60;;;8.70;99.90;;;;;;5007741;28;20412;-86
2022/02/24 11:06:15;;;;;;;3.97;3.67;;;8.60;99.90;;;;;;5005572;28;20447;-87
2022/02/24 11:08:43;;;;;;;6.23;3.33;;;8.50;99.90;;;;;;5006650;28;20484;-87
2022/02/24 11:11:14;;;;;;;11.87;6.00;;;8.50;99.90;;;;;;5006899;28;20416;-87
2022/02/24 11:13:41;;;;;;;9.07;5.27;;;8.70;99.90;;;;;;5006341;28;20440;-87
2022/02/24 11:16:08;;;;;;;6.00;3.50;;;;;;;;;;5005749;28;20455;-87
2022/02/24 11:18:35;;;;;;;4.40;4.00;;;8.70;99.90;;;;;;5010270;28;20422;-86
2022/02/24 11:21:02;;;;;;;9.83;5.57;;;8.70;99.90;;;;;;5008300;28;20463;-86
2022/02/24 11:23:30;;;;;;;5.33;3.10;;;8.60;99.90;;;;;;5009968;28;20484;-86
2022/02/24 11:26:19;;;;;;;5.93;3.47;;;8.60;99.90;;;;;;5010250;28;20468;-86
2022/02/24 11:28:50;;;;;;;6.27;3.57;;;8.60;99.90;;;;;;5008393;28;20407;-87
2022/02/24 11:31:23;;;;;;;5.53;3.90;;;8.60;99.90;;;;;;5012343;28;20430;-86
2022/02/24 11:33:51;;;;;;;6.27;3.60;;;8.60;99.90;;;;;;5013025;28;20455;-85
2022/02/24 11:36:19;;;;;;;6.20;3.57;;;;;;;;;;5021871;28;20469;-84
2022/02/24 11:39:09;;;;;;;8.47;3.97;;;8.70;99.90;;;;;;5022059;28;20481;-85
2022/02/24 11:41:51;;;;;;;10.30;3.43;;;8.70;99.90;;;;;;5021008;28;20470;-84
2022/02/24 11:44:31;;;;;;;5.70;3.90;;;8.70;99.90;;;;;;5021865;28;20398;-84
2022/02/24 11:46:59;;;;;;;8.83;3.90;;;8.80;99.90;;;;;;5021916;28;20485;-85
2022/02/24 11:50:02;;;;;;;8.07;3.57;;;8.80;99.90;;;;;;5020134;28;20459;-87
2022/02/24 11:52:31;;;;;;;7.63;4.43;;;8.70;99.90;;;;;;5011087;28;20433;-87
2022/02/24 11:55:00;;;;;;;6.53;3.43;;;8.80;99.90;;;;;;5008129;28;20465;-86
2022/02/24 11:57:28;;;;;;;7.90;5.40;;;9.20;99.90;;;;;;5004671;28;20425;-87
2022/02/24 11:59:56;;;;;;;4.60;4.00;;;9.00;99.90;;;;;;5004574;28;20424;-87
2022/02/24 12:02:40;;;;;;;9.20;5.10;;;9.10;99.90;;;;;;5004555;28;20863;-87
2022/02/24 12:05:18;;;;;;;10.63;3.80;;;9.10;99.90;;;;;;5004406;28;20469;-87
2022/02/24 12:08:02;;;;;;;8.33;4.83;;;9.10;99.90;;;;;;5004529;28;20489;-87
2022/02/24 12:10:43;;;;;;;6.60;5.03;;;9.10;99.90;;;;;;5001513;28;20467;-87
2022/02/24 12:13:29;;;;;;;6.60;3.53;;;9.50;99.90;;;;;;5003817;28;20427;-87
2022/02/24 12:16:14;;;;;;;6.37;3.97;;;9.20;99.90;;;;;;5003161;28;20488;-87
2022/02/24 12:18:42;;;;;;;7.47;4.37;;;9.30;99.90;;;;;;5003199;28;20416;-87
2022/02/24 12:21:28;;;;;;;6.70;3.90;;;9.20;99.90;;;;;;5019453;28;20491;-84
2022/02/24 12:23:56;;;;;;;4.17;3.27;;;9.20;99.90;;;;;;5020782;28;20429;-84
2022/02/24 12:26:39;;;;;;;4.70;3.77;;;9.40;99.90;;;;;;5018238;28;20444;-87
2022/02/24 12:29:19;;;;;;;8.00;3.40;;;9.40;99.90;;;;;;5007051;28;20421;-87
2022/02/24 12:31:46;;;;;;;7.90;3.60;;;9.40;99.90;;;;;;5006894;28;20454;-87
2022/02/24 12:34:12;;;;;;;5.43;3.73;;;9.20;99.90;;;;;;5006081;28;20821;-87
2022/02/24 12:36:39;;;;;;;4.63;3.53;;;9.20;99.90;;;;;;5009053;28;20469;-87
2022/02/24 12:39:06;;;;;;;4.53;3.60;;;9.30;99.90;;;;;;5004043;28;20485;-86
2022/02/24 12:41:33;;;;;;;7.70;3.77;;;9.30;99.90;;;;;;5004858;28;20895;-87
2022/02/24 12:44:02;;;;;;;5.73;3.80;;;11.10;99.90;;;;;;5007523;28;20426;-87
2022/02/24 12:46:29;;;;;;;9.33;4.50;;;9.50;99.90;;;;;;5007803;28;20480;-87
2022/02/24 12:48:56;;;;;;;8.17;3.60;;;9.10;99.90;;;;;;5003801;28;20454;-87
2022/02/24 12:51:24;;;;;;;5.60;3.47;;;9.50;99.90;;;;;;5003741;28;20809;-87
2022/02/24 12:53:50;;;;;;;3.70;3.00;;;9.50;99.90;;;;;;5004634;28;20415;-86
2022/02/24 12:56:18;;;;;;;4.27;3.50;;;9.00;99.90;;;;;;5006411;28;20452;-86
2022/02/24 12:58:45;;;;;;;5.93;3.10;;;9.40;99.90;;;;;;5005649;28;20504;-86
2022/02/24 13:01:19;;;;;;;8.17;3.33;;;9.60;99.90;;;;;;5004109;28;20537;-87
2022/02/24 13:03:45;;;;;;;4.37;2.90;;;11.50;99.90;;;;;;5009761;28;20478;-86
2022/02/24 13:06:13;;;;;;;6.97;3.77;;;;;;;;;;5001130;28;20948;-86
2022/02/24 13:11:23;;;;;;;4.40;3.40;;;9.60;99.90;;;;;;4993396;28;20455;-87
2022/02/24 13:13:51;;;;;;;5.40;2.70;;;9.70;99.90;;;;;;5004338;28;20599;-87
2022/02/24 13:16:21;;;;;;;5.63;3.23;;;10.50;99.90;;;;;;5002428;28;20554;-87
2022/02/24 13:18:49;;;;;;;3.73;2.93;;;9.70;99.90;;;;;;5002418;28;20412;-87
2022/02/24 13:21:19;;;;;;;4.47;3.10;;;;;;;;;;5002242;28;20507;-87
2022/02/24 13:23:50;;;;;;;5.23;3.93;;;9.70;99.90;;;;;;5004057;28;20538;-87
2022/02/24 13:26:29;;;;;;;9.63;3.30;;;;;;;;;;5008370;28;20537;-87
2022/02/24 13:29:01;;;;;;;5.53;3.33;;;10.00;99.90;;;;;;5009997;28;20450;-87
2022/02/24 13:31:45;;;;;;;4.63;3.10;;;10.10;99.90;;;;;;5011431;28;20445;-87
2022/02/24 13:34:14;;;;;;;3.20;2.87;;;;;;;;;;5004988;28;20476;-87
2022/02/24 13:36:47;;;;;;;4.87;3.17;;;10.10;99.90;;;;;;5002591;28;20539;-87
2022/02/24 13:39:43;;;;;;;8.30;3.43;;;10.20;99.90;;;;;;5001436;28;20502;-87
2022/02/24 13:42:16;;;;;;;3.43;2.43;;;10.10;99.90;;;;;;5002455;28;20487;-86
2022/02/24 13:44:44;;;;;;;4.50;2.73;;;10.20;99.90;;;;;;5004519;28;20413;-86
2022/02/24 13:47:14;;;;;;;5.83;3.37;;;10.20;99.90;;;;;;5005394;28;20495;-86
2022/02/24 13:49:44;;;;;;;3.90;2.70;;;10.20;99.90;;;;;;5010569;28;20397;-86
2022/02/24 13:52:24;;;;;;;4.87;2.97;;;10.10;99.90;;;;;;5011979;28;20427;-86
2022/02/24 13:54:59;;;;;;;4.07;2.80;;;10.20;99.90;;;;;;5018672;28;20467;-85
2022/02/24 13:57:26;;;;;;;5.70;4.60;;;;;;;;;;5018286;28;20430;-85
2022/02/24 14:00:12;;;;;;;5.00;3.50;;;10.20;99.90;;;;;;5014732;28;20428;-86